Time;durP1;ratioP1;P1;durP2;ratioP2;P2;SDS_P1;SDS_P2;PMS_P1;PMS_P2;Temp;Humidity;BMP_temperature;BMP_pressure;BME280_temperature;BME280_humidity;BME280_pressure;Samples;Min_cycle;Max_cycle;Signal;HPM_P1;HPM_P2
2021/05/15 00:01:34;;;;;;;36.20;14.52;;;;;;;9.51;100.00;100152.00;5026917;28;20025;-74
2021/05/15 00:04:02;;;;;;;33.83;15.07;;;;;;;9.58;100.00;100155.59;5037821;28;20173;-74
2021/05/15 00:06:28;;;;;;;33.22;14.02;;;;;;;9.61;100.00;100156.78;5041425;28;20516;-75
2021/05/15 00:08:53;;;;;;;27.05;14.07;;;;;;;9.52;100.00;100153.59;5043166;28;20404;-76
2021/05/15 00:11:19;;;;;;;33.78;14.00;;;;;;;9.67;100.00;100155.34;5040453;28;20033;-74
2021/05/15 00:13:45;;;;;;;34.15;14.55;;;;;;;9.59;100.00;100153.69;5040019;28;20371;-75
2021/05/15 00:16:11;;;;;;;37.08;14.40;;;;;;;9.62;100.00;100142.97;5046931;28;20038;-75
2021/05/15 00:18:36;;;;;;;35.65;15.23;;;;;;;9.71;100.00;100148.13;5047370;28;20028;-74
2021/05/15 00:21:02;;;;;;;33.47;15.10;;;;;;;9.61;100.00;100152.19;5043875;28;20039;-75
2021/05/15 00:23:27;;;;;;;32.67;15.65;;;;;;;9.71;100.00;100143.53;5036643;28;20030;-75
2021/05/15 00:25:54;;;;;;;41.95;14.75;;;;;;;9.76;100.00;100147.81;5037566;28;20037;-74
2021/05/15 00:28:19;;;;;;;34.05;15.80;;;;;;;9.96;100.00;100146.56;5017254;28;20040;-74
2021/05/15 00:30:45;;;;;;;39.08;15.45;;;;;;;9.89;100.00;100146.47;5037250;28;20466;-73
2021/05/15 00:33:10;;;;;;;40.35;16.10;;;;;;;9.82;100.00;100149.84;5023091;28;20029;-74
2021/05/15 00:35:36;;;;;;;34.95;15.32;;;;;;;9.93;100.00;100149.97;5012646;28;20037;-74
2021/05/15 00:38:01;;;;;;;34.33;15.63;;;;;;;9.93;100.00;100155.34;5037891;28;20021;-73
2021/05/15 00:40:27;;;;;;;35.85;15.82;;;;;;;9.87;100.00;100156.81;5046711;28;20041;-74
2021/05/15 00:42:53;;;;;;;39.85;16.10;;;;;;;9.83;100.00;100145.25;5015155;28;20061;-73
2021/05/15 00:45:19;;;;;;;33.65;15.07;;;;;;;9.78;100.00;100140.16;5037735;28;20791;-73
2021/05/15 00:47:45;;;;;;;35.33;15.55;;;;;;;9.82;100.00;100149.84;5028055;28;20103;-74
2021/05/15 00:50:11;;;;;;;32.88;14.85;;;;;;;9.78;100.00;100143.63;5016689;28;20034;-73
2021/05/15 00:52:37;;;;;;;40.03;14.93;;;;;;;9.90;100.00;100142.66;5049526;28;20053;-75
2021/05/15 00:55:11;;;;;;;36.97;15.00;;;;;;;9.98;100.00;100138.91;5044680;28;20037;-74
2021/05/15 00:57:38;;;;;;;36.53;14.85;;;;;;;9.85;100.00;100140.28;5030497;28;20456;-73
2021/05/15 01:00:06;;;;;;;32.33;14.57;;;;;;;9.80;100.00;100144.03;5036961;28;20544;-74
2021/05/15 01:02:32;;;;;;;39.78;15.93;;;;;;;10.00;100.00;100147.41;5032675;28;20030;-74
2021/05/15 01:04:57;;;;;;;36.70;14.48;;;;;;;9.96;100.00;100146.56;5046647;28;20033;-73
2021/05/15 01:07:23;;;;;;;32.92;15.00;;;;;;;9.86;100.00;100152.56;5033958;28;20057;-74
2021/05/15 01:09:48;;;;;;;36.33;15.23;;;;;;;9.88;100.00;100148.41;5038901;28;20055;-73
2021/05/15 01:12:14;;;;;;;46.28;16.20;;;;;;;9.91;100.00;100146.91;5046835;28;20034;-74
2021/05/15 01:14:40;;;;;;;39.97;14.82;;;;;;;10.00;100.00;100139.34;5026081;28;20071;-74
2021/05/15 01:17:10;;;;;;;41.40;15.68;;;;;;;10.03;100.00;100143.97;5015434;28;20034;-74
2021/05/15 01:19:36;;;;;;;36.83;15.38;;;;;;;10.04;100.00;100135.53;5049451;22;20053;-74
2021/05/15 01:22:06;;;;;;;44.15;16.35;;;;;;;10.02;100.00;100137.84;5027981;28;20463;-72
2021/05/15 01:24:32;;;;;;;36.25;15.82;;;;;;;10.08;100.00;100140.22;5024774;28;20116;-74
2021/05/15 01:26:59;;;;;;;38.47;15.25;;;;;;;10.00;100.00;100139.34;5019130;28;20108;-75
2021/05/15 01:29:26;;;;;;;37.78;14.95;;;;;;;10.00;100.00;100136.66;5023512;28;20444;-74
2021/05/15 01:31:51;;;;;;;40.13;16.52;;;;;;;9.91;100.00;100131.50;5030830;28;20040;-74
2021/05/15 01:34:17;;;;;;;42.25;16.42;;;;;;;10.06;100.00;100129.81;5031299;28;20489;-74
2021/05/15 01:36:43;;;;;;;37.08;15.10;;;;;;;9.98;100.00;100133.53;5018626;28;20088;-75
2021/05/15 01:39:14;;;;;;;35.30;15.20;;;;;;;9.95;100.00;100129.66;5030329;28;20040;-74
2021/05/15 01:41:40;;;;;;;35.72;15.77;;;;;;;10.02;100.00;100132.47;5030404;28;20029;-74
2021/05/15 01:44:06;;;;;;;46.00;15.68;;;;;;;10.10;100.00;100127.19;5025572;28;20044;-73
2021/05/15 01:46:32;;;;;;;38.05;14.88;;;;;;;10.04;100.00;100132.09;5030977;28;20033;-73
2021/05/15 01:48:58;;;;;;;37.63;15.63;;;;;;;9.91;100.00;100125.38;5025331;28;20052;-73
2021/05/15 01:51:23;;;;;;;39.10;15.77;;;;;;;10.06;100.00;100123.66;5027756;28;20424;-74
2021/05/15 01:53:51;;;;;;;37.78;15.40;;;;;;;10.02;100.00;100120.91;5027180;28;20025;-74
2021/05/15 01:56:24;;;;;;;38.60;15.70;;;;;;;10.14;100.00;100120.75;5031878;28;20068;-74
2021/05/15 01:58:51;;;;;;;44.10;16.20;;;;;;;9.96;100.00;100123.16;5025803;28;20034;-74
2021/05/15 02:01:18;;;;;;;43.25;16.05;;;;;;;9.99;100.00;100121.63;5022413;28;20041;-74
2021/05/15 02:03:45;;;;;;;41.13;15.45;;;;;;;10.00;100.00;100109.75;5025359;28;20041;-74
2021/05/15 02:06:10;;;;;;;37.17;15.70;;;;;;;10.13;100.00;100108.41;5023484;28;20108;-74
2021/05/15 02:08:37;;;;;;;41.95;17.35;;;;;;;10.07;100.00;100109.84;5027239;28;20112;-74
2021/05/15 02:11:02;;;;;;;42.75;16.13;;;;;;;10.05;100.00;100101.34;5027968;28;20040;-74
2021/05/15 02:13:30;;;;;;;39.80;16.52;;;;;;;10.10;100.00;100109.16;5025156;28;20033;-74
2021/05/15 02:15:56;;;;;;;36.38;15.68;;;;;;;9.99;100.00;100105.50;5026257;28;20033;-74
2021/05/15 02:18:22;;;;;;;38.25;16.45;;;;;;;10.01;100.00;100112.06;5018227;28;20041;-74
2021/05/15 02:20:49;;;;;;;34.10;15.20;;;;;;;9.97;100.00;100100.47;5024741;28;20065;-73
2021/05/15 02:23:15;;;;;;;40.95;16.27;;;;;;;10.14;100.00;100107.28;5026586;28;20044;-74
2021/05/15 02:25:42;;;;;;;36.38;15.93;;;;;;;10.14;100.00;100104.59;5022933;28;20021;-75
2021/05/15 02:28:07;;;;;;;35.33;15.15;;;;;;;10.10;100.00;100103.00;5031110;28;20072;-74
2021/05/15 02:30:34;;;;;;;39.80;15.93;;;;;;;10.06;100.00;100097.53;5022282;28;20057;-73
2021/05/15 02:33:19;;;;;;;38.80;15.10;;;;;;;10.03;100.00;100101.72;5025258;28;20014;-74
2021/05/15 02:35:46;;;;;;;34.35;14.32;;;;;;;10.03;100.00;100100.94;4949235;29;20057;-75
2021/05/15 02:38:13;;;;;;;39.42;16.02;;;;;;;10.03;100.00;100103.63;4950622;29;20114;-75
2021/05/15 02:40:40;;;;;;;34.60;15.50;;;;;;;9.97;100.00;100091.63;4949574;29;20083;-74
2021/05/15 02:43:06;;;;;;;39.38;14.43;;;;;;;10.04;100.00;100091.75;4946756;28;20455;-74
2021/05/15 02:45:31;;;;;;;38.63;15.25;;;;;;;10.04;100.00;100099.81;4949950;29;20035;-75
2021/05/15 02:47:57;;;;;;;37.40;15.40;;;;;;;10.05;100.00;100090.59;4949834;29;20074;-74
2021/05/15 02:50:24;;;;;;;40.50;15.93;;;;;;;10.01;100.00;100089.75;4948216;29;20051;-72
2021/05/15 02:52:50;;;;;;;36.53;15.77;;;;;;;10.04;100.00;100089.06;4948502;29;20043;-74
2021/05/15 02:55:24;;;;;;;37.22;15.50;;;;;;;10.07;100.00;100088.31;4942521;28;20472;-74
2021/05/15 02:57:50;;;;;;;35.08;14.88;;;;;;;10.07;100.00;100082.16;4950646;29;20035;-75
2021/05/15 03:00:20;;;;;;;37.67;15.30;;;;;;;10.02;100.00;100086.72;4946487;29;20567;-74
2021/05/15 03:02:46;;;;;;;37.78;16.38;;;;;;;10.08;100.00;100078.34;4949751;29;20562;-74
2021/05/15 03:05:15;;;;;;;38.22;15.63;;;;;;;10.06;100.00;100081.41;4949191;29;20110;-73
2021/05/15 03:07:40;;;;;;;45.58;16.70;;;;;;;10.15;100.00;100090.00;4950657;29;20125;-75
2021/05/15 03:10:08;;;;;;;32.72;15.68;;;;;;;10.11;100.00;100083.78;4946072;29;20133;-74
2021/05/15 03:12:34;;;;;;;40.33;15.65;;;;;;;10.12;100.00;100082.66;4980558;28;20500;-74
2021/05/15 03:14:59;;;;;;;36.67;15.25;;;;;;;10.21;100.00;100090.44;5031004;28;20128;-74
2021/05/15 03:17:25;;;;;;;37.95;15.60;;;;;;;10.24;100.00;100085.09;5029513;28;20438;-75
2021/05/15 03:19:52;;;;;;;39.83;16.70;;;;;;;10.17;100.00;100082.31;5025027;28;20104;-73
2021/05/15 03:22:21;;;;;;;36.97;16.33;;;;;;;10.28;100.00;100082.47;5027529;28;20402;-74
2021/05/15 03:24:47;;;;;;;39.90;16.50;;;;;;;10.23;100.00;100080.09;5030928;28;20454;-74
2021/05/15 03:27:12;;;;;;;35.55;15.48;;;;;;;10.18;100.00;100086.56;5025213;28;20057;-74
2021/05/15 03:29:38;;;;;;;40.85;16.63;;;;;;;10.16;100.00;100074.63;5029603;28;20072;-74
2021/05/15 03:32:04;;;;;;;38.25;16.08;;;;;;;10.12;100.00;100081.88;5023745;28;20061;-74
2021/05/15 03:34:29;;;;;;;44.50;15.93;;;;;;;10.14;100.00;100083.06;5020805;28;20057;-74
2021/05/15 03:36:54;;;;;;;38.38;15.82;;;;;;;10.07;100.00;100093.69;5029962;28;20025;-74
2021/05/15 03:39:20;;;;;;;34.97;16.40;;;;;;;10.21;100.00;100087.75;5027004;28;20052;-75
2021/05/15 03:41:46;;;;;;;37.40;16.13;;;;;;;10.11;100.00;100077.63;5019723;28;20037;-75
2021/05/15 03:44:12;;;;;;;41.30;15.77;;;;;;;10.16;100.00;100075.41;5026294;28;20413;-74
2021/05/15 03:46:37;;;;;;;43.50;15.77;;;;;;;10.21;100.00;100077.78;5030653;28;20036;-74
2021/05/15 03:49:03;;;;;;;39.40;16.13;;;;;;;10.29;100.00;100071.34;5027419;28;20112;-74
2021/05/15 03:51:29;;;;;;;37.33;16.17;;;;;;;10.35;100.00;100083.31;5013644;28;20417;-74
2021/05/15 03:53:55;;;;;;;42.28;16.00;;;;;;;10.14;100.00;100072.31;5030679;28;20013;-74
2021/05/15 03:56:20;;;;;;;31.80;15.30;;;;;;;10.05;100.00;100069.06;5032576;28;20033;-75
2021/05/15 03:58:45;;;;;;;40.40;16.52;;;;;;;10.12;100.00;100063.03;5024460;28;20125;-74
2021/05/15 04:01:11;;;;;;;40.65;16.85;;;;;;;10.16;100.00;100069.25;5022362;28;20474;-74
2021/05/15 04:03:36;;;;;;;39.60;16.65;;;;;;;10.17;100.00;100071.56;5032899;28;20053;-75
2021/05/15 04:06:02;;;;;;;36.40;15.63;;;;;;;10.39;100.00;100073.38;5031122;28;20437;-74
2021/05/15 04:08:27;;;;;;;40.42;16.10;;;;;;;10.44;100.00;100078.41;5027314;28;20560;-75
2021/05/15 04:10:52;;;;;;;41.58;16.02;;;;;;;10.42;100.00;100077.22;5033285;28;20037;-75
2021/05/15 04:16:23;;;;;;;40.80;15.88;;;;;;;10.36;100.00;100070.63;5011840;28;20087;-74
2021/05/15 04:18:49;;;;;;;37.58;16.40;;;;;;;10.32;100.00;100067.13;5021476;28;20040;-75
2021/05/15 04:21:14;;;;;;;37.72;16.08;;;;;;;10.34;100.00;100059.44;5032156;28;20405;-74
2021/05/15 04:23:41;;;;;;;36.83;15.90;;;;;;;10.43;100.00;100068.78;5021770;28;20033;-74
2021/05/15 04:26:10;;;;;;;39.75;15.65;;;;;;;10.50;100.00;100071.56;5027933;28;20041;-74
2021/05/15 04:28:36;;;;;;;32.08;14.57;;;;;;;10.45;100.00;100071.88;5032468;28;20079;-74
2021/05/15 04:31:02;;;;;;;37.72;15.85;;;;;;;10.49;100.00;100072.69;5033162;28;20033;-74
2021/05/15 04:33:27;;;;;;;37.35;15.65;;;;;;;10.59;100.00;100066.66;5031348;28;20037;-74
2021/05/15 04:35:55;;;;;;;43.65;16.05;;;;;;;10.61;100.00;100059.00;5026032;28;20100;-74
2021/05/15 04:38:21;;;;;;;35.35;16.25;;;;;;;10.57;100.00;100068.16;5033468;28;20469;-74
2021/05/15 04:40:47;;;;;;;36.65;15.50;;;;;;;10.61;100.00;100059.00;5025039;28;20399;-74
2021/05/15 04:43:14;;;;;;;37.15;15.25;;;;;;;10.57;100.00;100073.53;5029346;28;20063;-74
2021/05/15 04:45:40;;;;;;;31.55;14.35;;;;;;;10.70;100.00;100072.91;5033357;28;20044;-74
2021/05/15 04:48:06;;;;;;;37.85;15.65;;;;;;;10.69;100.00;100071.38;5031620;28;20496;-75
2021/05/15 04:50:32;;;;;;;36.33;16.02;;;;;;;10.71;100.00;100071.78;5021116;28;20041;-74
2021/05/15 04:52:57;;;;;;;36.38;14.82;;;;;;;10.56;100.00;100075.47;5033578;28;20113;-74
2021/05/15 04:55:23;;;;;;;34.97;14.32;;;;;;;10.64;100.00;100063.66;5032549;28;20481;-74
2021/05/15 04:57:48;;;;;;;39.42;15.88;;;;;;;10.71;100.00;100063.72;5033402;28;20057;-74
2021/05/15 05:00:14;;;;;;;35.47;15.10;;;;;;;10.62;100.00;100060.56;5025585;28;20706;-74
2021/05/15 05:02:40;;;;;;;38.67;15.20;;;;;;;10.65;100.00;100061.72;5022254;28;20025;-74
2021/05/15 05:05:08;;;;;;;40.58;15.23;;;;;;;10.68;100.00;100061.00;5028133;28;20059;-74
2021/05/15 05:07:33;;;;;;;40.22;17.23;;;;;;;10.69;100.00;100060.63;5025621;28;20060;-75
2021/05/15 05:09:59;;;;;;;36.67;15.02;;;;;;;10.51;100.00;100070.41;5032267;28;20481;-74
2021/05/15 05:12:24;;;;;;;39.13;15.10;;;;;;;10.70;100.00;100067.53;5033012;28;20037;-74
2021/05/15 05:14:50;;;;;;;32.00;15.20;;;;;;;10.75;100.00;100069.91;5030301;28;20022;-74
2021/05/15 05:17:15;;;;;;;37.05;15.32;;;;;;;10.73;100.00;100066.03;5024778;28;20485;-75
2021/05/15 05:19:40;;;;;;;34.35;14.95;;;;;;;10.87;100.00;100071.56;5031731;28;20504;-74
2021/05/15 05:22:06;;;;;;;38.45;15.00;;;;;;;10.81;100.00;100070.34;5026530;28;20491;-74
2021/05/15 05:24:32;;;;;;;34.38;15.30;;;;;;;10.92;100.00;100073.91;5019233;28;20095;-75
2021/05/15 05:27:01;;;;;;;38.67;15.45;;;;;;;10.87;100.00;100077.72;5021456;28;20025;-74
2021/05/15 05:29:27;;;;;;;35.30;14.90;;;;;;;10.90;100.00;100068.13;5023405;28;20112;-74
2021/05/15 05:31:53;;;;;;;35.42;14.55;;;;;;;11.07;100.00;100070.19;5031699;28;20174;-74
2021/05/15 05:34:19;;;;;;;34.22;15.13;;;;;;;11.15;100.00;100066.41;5032406;28;20024;-74
2021/05/15 05:36:47;;;;;;;34.58;14.77;;;;;;;11.11;100.00;100075.63;5028582;28;20045;-74
2021/05/15 05:39:17;;;;;;;32.35;13.93;;;;;;;11.09;100.00;100083.31;5019932;28;20037;-76
2021/05/15 05:41:44;;;;;;;34.80;14.40;;;;;;;11.13;100.00;100084.88;5032662;28;20048;-74
2021/05/15 05:44:10;;;;;;;28.77;14.00;;;;;;;11.00;100.00;100085.53;5028468;28;20033;-74
2021/05/15 05:46:35;;;;;;;27.58;13.48;;;;;;;11.02;100.00;100077.84;5023337;28;20079;-74
2021/05/15 05:49:01;;;;;;;29.02;13.30;;;;;;;11.05;100.00;100080.59;5025341;28;20061;-75
2021/05/15 05:51:26;;;;;;;31.60;13.40;;;;;;;10.98;100.00;100080.50;5032219;28;20021;-75
2021/05/15 05:53:52;;;;;;;31.70;14.00;;;;;;;10.98;100.00;100085.13;5022271;28;20041;-74
2021/05/15 05:56:18;;;;;;;34.25;15.07;;;;;;;11.25;100.00;100081.13;5028160;28;20498;-74
2021/05/15 05:58:45;;;;;;;30.25;14.05;;;;;;;11.20;100.00;100081.47;5031865;28;20040;-74
2021/05/15 06:01:15;;;;;;;32.55;13.57;;;;;;;11.23;100.00;100088.81;5031095;28;20104;-74
2021/05/15 06:03:41;;;;;;;31.13;13.65;;;;;;;11.02;100.00;100077.84;5023665;28;20033;-74
2021/05/15 06:06:06;;;;;;;28.48;13.70;;;;;;;11.21;100.00;100080.31;5030705;28;20029;-74
2021/05/15 06:08:32;;;;;;;25.92;12.32;;;;;;;11.29;100.00;100079.22;5025843;28;20403;-74
2021/05/15 06:10:58;;;;;;;29.80;12.55;;;;;;;11.28;100.00;100080.38;5028914;28;20064;-74
2021/05/15 06:13:24;;;;;;;35.58;13.23;;;;;;;11.30;100.00;100088.88;5031705;28;20125;-75
2021/05/15 06:15:50;;;;;;;31.10;12.32;;;;;;;11.23;100.00;100096.88;5029381;28;20124;-74
2021/05/15 06:18:15;;;;;;;34.63;14.30;;;;;;;11.39;100.00;100084.72;5030321;28;20104;-74
2021/05/15 06:20:42;;;;;;;29.08;12.85;;;;;;;11.29;100.00;100092.69;5029811;28;20040;-75
2021/05/15 06:23:07;;;;;;;26.95;12.60;;;;;;;11.39;100.00;100084.72;5017642;28;20034;-74
2021/05/15 06:25:33;;;;;;;34.92;13.32;;;;;;;11.26;100.00;100080.00;5022141;28;20038;-75
2021/05/15 06:27:58;;;;;;;35.30;12.77;;;;;;;11.22;100.00;100081.88;5024149;28;20125;-74
2021/05/15 06:30:23;;;;;;;30.75;13.05;;;;;;;11.25;100.00;100081.91;5013536;28;20030;-75
2021/05/15 06:32:49;;;;;;;31.63;13.15;;;;;;;11.30;100.00;100088.88;5022928;28;20496;-75
2021/05/15 06:35:15;;;;;;;36.40;12.98;;;;;;;11.26;100.00;100088.84;5021699;28;20030;-74
2021/05/15 06:37:40;;;;;;;28.55;13.30;;;;;;;11.33;100.00;100080.81;5024992;28;20479;-75
2021/05/15 06:40:07;;;;;;;28.48;12.75;;;;;;;11.30;100.00;100083.50;5022285;28;20041;-74
2021/05/15 06:42:33;;;;;;;30.13;12.77;;;;;;;11.43;100.00;100088.22;5026257;28;20037;-75
2021/05/15 06:44:59;;;;;;;29.88;12.68;;;;;;;11.23;100.00;100083.41;5023134;28;20056;-75
2021/05/15 06:47:25;;;;;;;29.15;13.27;;;;;;;11.44;100.00;100075.50;5022921;28;20473;-75
2021/05/15 06:49:50;;;;;;;31.17;13.98;;;;;;;11.52;100.00;100083.25;5016212;28;20037;-74
2021/05/15 06:52:16;;;;;;;29.05;13.52;;;;;;;11.54;100.00;100077.50;5020962;28;20048;-74
2021/05/15 06:54:42;;;;;;;30.10;13.60;;;;;;;11.60;100.00;100081.38;5015720;28;20029;-74
2021/05/15 06:57:08;;;;;;;30.27;12.55;;;;;;;11.51;100.00;100084.44;5027204;28;20421;-74
2021/05/15 06:59:34;;;;;;;28.85;12.70;;;;;;;11.61;100.00;100086.41;5023278;28;20029;-74
2021/05/15 07:02:00;;;;;;;30.88;12.93;;;;;;;11.71;100.00;100093.06;5028509;28;20044;-74
2021/05/15 07:04:26;;;;;;;30.25;13.40;;;;;;;11.71;100.00;100076.88;5030190;28;20163;-74
2021/05/15 07:06:52;;;;;;;27.77;12.38;;;;;;;11.96;100.00;100085.91;5020974;28;20494;-74
2021/05/15 07:09:17;;;;;;;26.38;12.70;;;;;;;12.04;100.00;100078.59;5017717;28;20039;-74
2021/05/15 07:11:43;;;;;;;27.63;11.63;;;;;;;12.13;100.00;100071.72;5029138;28;20112;-75
2021/05/15 07:14:08;;;;;;;27.20;11.68;;;;;;;12.09;100.00;100075.53;5030860;28;20018;-74
2021/05/15 07:16:34;;;;;;;28.63;12.77;;;;;;;12.23;100.00;100072.91;5016180;28;20065;-74
2021/05/15 07:18:59;;;;;;;29.13;12.43;;;;;;;12.38;100.00;100083.38;5031040;23;20038;-74
2021/05/15 07:21:25;;;;;;;23.90;11.77;;;;;;;12.32;100.00;100079.50;5029118;28;20054;-74
2021/05/15 07:23:50;;;;;;;29.40;12.05;;;;;;;12.37;100.00;100076.41;5013718;28;20036;-74
2021/05/15 07:26:16;;;;;;;25.25;12.48;;;;;;;12.34;100.00;100074.50;5029726;28;20033;-74
2021/05/15 07:28:41;;;;;;;32.85;11.93;;;;;;;12.36;100.00;100077.59;5030819;28;20046;-74
2021/05/15 07:31:07;;;;;;;22.80;11.52;;;;;;;12.51;100.00;100070.28;4984308;28;20034;-74
2021/05/15 07:33:33;;;;;;;25.60;11.57;;;;;;;12.60;99.33;100071.47;4986120;28;20037;-73
2021/05/15 07:35:59;;;;;;;23.80;11.55;;;;;;;12.80;98.19;100079.22;5005728;28;20037;-74
2021/05/15 07:38:26;;;;;;;28.70;12.15;;;;;;;12.92;97.66;100063.44;5002636;28;20088;-74
2021/05/15 07:40:53;;;;;;;26.15;11.90;;;;;;;12.88;95.92;100068.06;5002337;28;20445;-74
2021/05/15 07:43:26;;;;;;;26.92;11.13;;;;;;;12.88;97.24;100064.56;4993489;28;20777;-74
2021/05/15 07:45:53;;;;;;;28.42;11.70;;;;;;;13.01;96.08;100065.75;4993320;28;20424;-73
2021/05/15 07:48:28;;;;;;;25.88;10.82;;;;;;;13.07;95.67;100069.63;4972423;28;20034;-73
2021/05/15 07:50:57;;;;;;;25.77;12.52;;;;;;;12.83;96.22;100068.44;5002909;28;20037;-74
2021/05/15 07:53:24;;;;;;;24.02;11.68;;;;;;;12.84;96.32;100067.28;4983032;28;20030;-74
2021/05/15 07:55:50;;;;;;;24.45;11.57;;;;;;;12.37;96.75;100067.53;5002347;28;20045;-74
2021/05/15 07:58:17;;;;;;;24.92;11.85;;;;;;;12.34;96.66;100074.50;5006386;28;20037;-74
2021/05/15 08:00:43;;;;;;;25.63;10.80;;;;;;;12.48;98.17;100074.53;4990337;28;20425;-74
2021/05/15 08:03:08;;;;;;;29.90;12.13;;;;;;;12.68;96.49;100064.94;4987433;28;20042;-74
2021/05/15 08:05:34;;;;;;;26.67;12.15;;;;;;;12.68;96.99;100064.16;4985870;28;20042;-74
2021/05/15 08:08:01;;;;;;;27.83;12.13;;;;;;;12.87;96.63;100057.63;4996901;28;20022;-74
2021/05/15 08:10:27;;;;;;;26.00;11.75;;;;;;;12.86;97.50;100058.78;5004017;28;20034;-74
2021/05/15 08:12:53;;;;;;;28.17;12.32;;;;;;;12.93;97.35;100059.56;5008596;28;20026;-74
2021/05/15 08:15:18;;;;;;;32.55;12.45;;;;;;;12.90;97.07;100059.56;4986796;28;20100;-74
2021/05/15 08:17:43;;;;;;;27.60;12.55;;;;;;;12.86;96.48;100054.16;5005600;28;20038;-73
2021/05/15 08:20:10;;;;;;;27.95;12.80;;;;;;;12.61;93.07;100056.81;5005001;28;20126;-74
2021/05/15 08:22:35;;;;;;;31.70;12.88;;;;;;;12.62;95.67;100066.47;5002259;28;20461;-74
2021/05/15 08:25:01;;;;;;;31.10;12.30;;;;;;;12.87;93.33;100057.63;4992447;28;20117;-74
2021/05/15 08:27:26;;;;;;;28.38;12.32;;;;;;;12.93;93.56;100056.09;5002609;28;20037;-74
2021/05/15 08:29:53;;;;;;;28.92;12.10;;;;;;;13.25;93.58;100056.91;4983990;28;20021;-74
2021/05/15 08:32:19;;;;;;;29.50;11.57;;;;;;;13.42;89.85;100056.13;5007049;28;20070;-73
2021/05/15 08:34:45;;;;;;;34.35;12.68;;;;;;;13.67;91.75;100056.06;5002609;28;20030;-73
2021/05/15 08:37:10;;;;;;;33.75;12.38;;;;;;;13.84;90.48;100058.00;5010846;28;20394;-75
2021/05/15 08:39:36;;;;;;;24.13;11.35;;;;;;;13.73;89.48;100060.72;4978789;28;20029;-75
2021/05/15 08:42:01;;;;;;;32.70;12.30;;;;;;;13.55;89.04;100063.44;4994055;28;20038;-75
2021/05/15 08:44:28;;;;;;;24.67;11.68;;;;;;;13.68;90.34;100055.72;5013972;28;20109;-75
2021/05/15 08:46:55;;;;;;;26.65;12.45;;;;;;;13.95;90.01;100056.00;4989284;28;20054;-75
2021/05/15 08:49:22;;;;;;;23.77;11.90;;;;;;;13.97;90.72;100057.19;5004563;28;20026;-75
2021/05/15 08:51:53;;;;;;;27.42;11.70;;;;;;;14.19;91.35;100060.56;4987842;28;20540;-73
2021/05/15 08:54:21;;;;;;;29.17;12.30;;;;;;;14.20;90.33;100064.81;5004142;28;20033;-75
2021/05/15 08:56:50;;;;;;;31.88;13.13;;;;;;;14.23;89.61;100059.38;5005040;28;20030;-73
2021/05/15 08:59:16;;;;;;;28.08;12.73;;;;;;;14.15;87.96;100067.94;5012865;28;20034;-75
2021/05/15 09:01:44;;;;;;;26.50;11.95;;;;;;;13.50;89.43;100068.47;5013828;28;20029;-74
2021/05/15 09:04:10;;;;;;;26.10;11.85;;;;;;;13.89;89.89;100061.06;5010781;28;20037;-75
2021/05/15 09:06:40;;;;;;;24.90;12.27;;;;;;;14.07;89.15;100058.31;5010474;28;20038;-75
2021/05/15 09:09:05;;;;;;;25.48;12.07;;;;;;;14.20;89.26;100049.34;5007309;28;20041;-75
2021/05/15 09:11:31;;;;;;;24.80;11.65;;;;;;;14.49;88.41;100055.44;5012311;28;20022;-74
2021/05/15 09:13:56;;;;;;;28.48;12.25;;;;;;;14.75;86.14;100051.41;4991926;28;20057;-74
2021/05/15 09:16:23;;;;;;;27.25;11.68;;;;;;;14.64;82.58;100050.69;5012410;28;20109;-74
2021/05/15 09:18:48;;;;;;;30.50;11.55;;;;;;;14.64;84.69;100056.09;5002749;28;20022;-74
2021/05/15 09:21:25;;;;;;;24.52;11.30;;;;;;;14.99;82.66;100055.88;4991767;28;20045;-74
2021/05/15 09:23:51;;;;;;;25.17;11.52;;;;;;;14.85;83.28;100045.91;5002777;28;20113;-74
2021/05/15 09:26:27;;;;;;;24.08;11.57;;;;;;;14.90;85.10;100037.34;5008677;28;20033;-74
2021/05/15 09:28:57;;;;;;;26.30;12.27;;;;;;;14.22;84.52;100036.19;5007779;28;20045;-74
2021/05/15 09:31:29;;;;;;;28.77;11.32;;;;;;;14.59;86.06;100024.00;4997281;28;20077;-74
2021/05/15 09:34:04;;;;;;;;;;;;;;;14.81;84.60;100022.69;5006996;28;20057;-74
2021/05/15 09:36:38;;;;;;;24.42;10.93;;;;;;;15.06;83.90;100026.75;5009533;28;20389;-74
2021/05/15 09:39:06;;;;;;;25.27;11.23;;;;;;;14.89;81.15;100027.66;5007285;28;20030;-73
2021/05/15 09:41:33;;;;;;;25.38;11.23;;;;;;;14.97;82.45;100020.25;5001639;28;20108;-74
2021/05/15 09:43:59;;;;;;;24.65;11.30;;;;;;;15.54;82.91;100021.31;5003059;28;20475;-73
2021/05/15 09:46:29;;;;;;;22.92;11.52;;;;;;;15.85;81.35;100014.75;4989276;28;20041;-74
2021/05/15 09:48:56;;;;;;;24.05;10.73;;;;;;;16.19;80.69;99999.22;5005188;28;20026;-74
2021/05/15 09:51:22;;;;;;;28.35;12.38;;;;;;;16.31;77.34;100006.03;5010121;28;20137;-73
2021/05/15 09:53:48;;;;;;;20.63;10.13;;;;;;;16.12;77.96;100001.25;5009215;28;20057;-74
2021/05/15 09:56:24;;;;;;;25.42;11.80;;;;;;;16.66;77.60;99991.97;4996820;28;20049;-74
2021/05/15 09:58:52;;;;;;;26.00;11.35;;;;;;;16.99;76.48;99993.75;4986521;28;20037;-74
2021/05/15 10:01:17;;;;;;;24.35;11.23;;;;;;;16.68;73.63;100005.94;4990923;28;20053;-73
2021/05/15 10:03:47;;;;;;;23.83;11.30;;;;;;;16.05;75.90;100002.09;4991326;28;20072;-73
2021/05/15 10:06:15;;;;;;;25.80;11.45;;;;;;;16.24;76.63;100001.47;4989519;28;20409;-75
2021/05/15 10:08:42;;;;;;;20.75;10.68;;;;;;;16.80;77.79;99997.16;4989285;28;20520;-75
2021/05/15 10:11:09;;;;;;;23.95;11.20;;;;;;;17.28;73.71;99988.63;4993552;28;20045;-74
2021/05/15 10:13:37;;;;;;;24.75;10.88;;;;;;;18.13;72.27;99990.47;4972322;28;20422;-75
2021/05/15 10:16:04;;;;;;;27.00;10.75;;;;;;;17.88;70.98;99987.50;4994491;28;20030;-73
2021/05/15 10:18:30;;;;;;;22.15;10.65;;;;;;;17.83;64.93;99985.25;4992130;28;20046;-74
2021/05/15 10:20:57;;;;;;;21.42;10.20;;;;;;;17.78;71.01;99980.28;5002408;28;20033;-75
2021/05/15 10:23:24;;;;;;;28.67;9.95;;;;;;;17.90;68.65;99974.22;5001594;28;20041;-73
2021/05/15 10:26:03;;;;;;;19.55;9.57;;;;;;;17.54;66.72;99976.88;5012030;28;20069;-75
2021/05/15 10:28:31;;;;;;;24.45;10.73;;;;;;;17.06;68.46;99969.16;5012937;28;20056;-75
2021/05/15 10:31:17;;;;;;;21.70;9.55;;;;;;;17.41;69.72;99970.47;5014264;28;20049;-75
2021/05/15 10:33:46;;;;;;;21.90;9.73;;;;;;;16.95;67.64;99960.41;5011722;28;20034;-76
2021/05/15 10:36:23;;;;;;;20.52;9.68;;;;;;;16.75;73.78;99961.53;5004069;28;20042;-74
2021/05/15 10:38:51;;;;;;;20.30;9.50;;;;;;;16.89;70.37;99955.84;5003076;28;20556;-75
2021/05/15 10:41:27;;;;;;;25.25;10.45;;;;;;;17.04;70.13;99957.94;5007381;28;20109;-75
2021/05/15 10:43:55;;;;;;;20.38;9.88;;;;;;;17.66;71.04;99956.41;5000412;28;20033;-74
2021/05/15 10:46:26;;;;;;;20.33;10.18;;;;;;;17.83;66.72;99950.59;5001169;28;20516;-75
2021/05/15 10:48:56;;;;;;;20.75;9.63;;;;;;;17.41;70.41;99948.69;4986838;28;20561;-75
2021/05/15 10:51:30;;;;;;;21.90;9.98;;;;;;;17.75;69.74;99943.00;5001111;28;20061;-74
2021/05/15 10:53:56;;;;;;;22.52;9.88;;;;;;;18.07;71.47;99939.59;4996737;28;20375;-75
2021/05/15 10:56:28;;;;;;;18.35;9.43;;;;;;;18.50;70.64;99940.22;4987474;28;20026;-74
2021/05/15 10:59:04;;;;;;;21.15;9.43;;;;;;;18.62;68.26;99937.56;4998132;28;20057;-75
2021/05/15 11:01:43;;;;;;;22.48;10.30;;;;;;;18.23;69.53;99937.69;4996767;28;20033;-74
2021/05/15 11:04:28;;;;;;;18.10;9.73;;;;;;;18.23;66.65;99929.50;4994743;28;20065;-75
2021/05/15 11:07:07;;;;;;;22.08;9.20;;;;;;;18.10;65.18;99925.13;4975244;28;20445;-75
2021/05/15 11:09:35;;;;;;;17.83;8.70;;;;;;;18.49;68.53;99920.34;4974329;28;20038;-72